createdAt,value
2022-11-20T00:01:29.969Z,987
2022-11-20T00:06:34.536Z,987
2022-11-20T00:11:39.042Z,987
2022-11-20T00:16:42.608Z,987
2022-11-20T00:21:47.293Z,987
2022-11-20T00:26:51.631Z,987
2022-11-20T00:31:55.220Z,987
2022-11-20T00:36:59.722Z,987
2022-11-20T00:42:04.290Z,987
2022-11-20T00:47:07.873Z,987
2022-11-20T00:52:12.369Z,987
2022-11-20T00:57:16.922Z,987
2022-11-20T01:02:21.549Z,987
2022-11-20T01:07:26.170Z,987
2022-11-20T01:12:30.577Z,987
2022-11-20T01:17:35.176Z,987
2022-11-20T01:22:38.730Z,987
2022-11-20T01:27:43.221Z,986
2022-11-20T01:32:47.755Z,986
2022-11-20T01:37:51.511Z,986
2022-11-20T01:42:55.841Z,986
2022-11-20T01:48:00.379Z,986
2022-11-20T01:53:04.014Z,986
2022-11-20T01:58:08.481Z,986
2022-11-20T02:03:13.020Z,986
2022-11-20T02:08:16.593Z,986
2022-11-20T02:13:21.092Z,986
2022-11-20T02:18:25.664Z,987
2022-11-20T02:23:30.167Z,986
2022-11-20T02:28:33.746Z,986
2022-11-20T02:33:38.264Z,986
2022-11-20T02:38:42.780Z,986
2022-11-20T02:43:46.338Z,986
2022-11-20T02:48:49.923Z,986
2022-11-20T02:53:54.424Z,986
2022-11-20T02:58:58.980Z,986
2022-11-20T03:04:03.496Z,986
2022-11-20T03:09:08.152Z,986
2022-11-20T03:14:12.694Z,986
2022-11-20T03:19:17.257Z,986
2022-11-20T03:24:20.785Z,986
2022-11-20T03:29:25.323Z,986
2022-11-20T03:34:29.867Z,986
2022-11-20T03:39:33.407Z,986
2022-11-20T03:44:37.934Z,986
2022-11-20T03:49:42.458Z,986
2022-11-20T03:54:45.994Z,986
2022-11-20T03:59:50.544Z,986
2022-11-20T04:04:55.111Z,986
2022-11-20T04:09:59.608Z,986
2022-11-20T04:15:03.164Z,986
2022-11-20T04:20:07.693Z,986
2022-11-20T04:25:12.259Z,986
2022-11-20T04:30:15.816Z,986
2022-11-20T04:35:20.310Z,986
2022-11-20T04:40:24.876Z,986
2022-11-20T04:45:28.424Z,986
2022-11-20T04:50:32.951Z,986
2022-11-20T04:55:37.475Z,986
2022-11-20T05:00:41.045Z,986
2022-11-20T05:05:45.591Z,986
2022-11-20T05:10:50.117Z,986
2022-11-20T05:15:54.643Z,986
2022-11-20T05:20:58.179Z,986
2022-11-20T05:26:02.715Z,986
2022-11-20T05:31:07.304Z,986
2022-11-20T05:36:11.949Z,986
2022-11-20T05:41:16.463Z,986
2022-11-20T05:46:26.426Z,986
2022-11-20T05:51:24.525Z,986
2022-11-20T05:56:29.086Z,986
2022-11-20T06:01:33.589Z,986
2022-11-20T06:06:37.168Z,986
2022-11-20T06:11:41.717Z,986
2022-11-20T06:16:46.237Z,986
2022-11-20T06:21:50.765Z,986
2022-11-20T06:26:54.343Z,986
2022-11-20T06:31:58.843Z,986
2022-11-20T06:37:03.397Z,986
2022-11-20T06:42:06.961Z,986
2022-11-20T06:47:11.468Z,986
2022-11-20T06:52:16.011Z,986
2022-11-20T06:57:19.540Z,986
2022-11-20T07:02:24.083Z,986
2022-11-20T07:07:27.682Z,986
2022-11-20T07:12:32.201Z,986
2022-11-20T07:17:36.739Z,986
2022-11-20T07:22:40.258Z,986
2022-11-20T07:27:44.791Z,986
2022-11-20T07:32:49.356Z,986
2022-11-20T07:37:52.897Z,986
2022-11-20T07:42:57.424Z,986
2022-11-20T07:48:01.948Z,986
2022-11-20T07:53:06.647Z,986
2022-11-20T07:58:11.126Z,986
2022-11-20T08:03:18.081Z,986
2022-11-20T08:08:20.199Z,986
2022-11-20T08:13:23.753Z,986
2022-11-20T08:18:31.661Z,986
2022-11-20T08:23:32.929Z,986
2022-11-20T08:28:36.455Z,986
2022-11-20T08:33:40.962Z,986
2022-11-20T08:38:45.497Z,986
2022-11-20T08:43:49.088Z,986
2022-11-20T08:48:53.590Z,986
2022-11-20T08:53:58.137Z,986
2022-11-20T08:59:20.608Z,986
2022-11-20T09:04:06.217Z,986
2022-11-20T09:09:10.776Z,986
2022-11-20T09:14:15.272Z,986
2022-11-20T09:19:35.803Z,986
2022-11-20T09:24:23.344Z,986
2022-11-20T09:29:27.904Z,986
2022-11-20T09:34:31.457Z,986
2022-11-20T09:39:36.023Z,986
2022-11-20T09:44:40.512Z,986
2022-11-20T09:49:44.097Z,986
2022-11-20T09:54:48.617Z,986
2022-11-20T09:59:53.130Z,986
2022-11-20T10:04:56.683Z,986
2022-11-20T10:10:01.219Z,986
2022-11-20T10:15:05.950Z,986
2022-11-20T10:20:10.428Z,986
2022-11-20T10:25:14.008Z,986
2022-11-20T10:30:18.538Z,986
2022-11-20T10:35:23.105Z,986
2022-11-20T10:40:26.584Z,986
2022-11-20T10:45:31.127Z,986
2022-11-20T10:50:35.699Z,985
2022-11-20T10:55:39.269Z,985
2022-11-20T11:00:43.820Z,985
2022-11-20T11:05:48.313Z,985
2022-11-20T11:10:51.825Z,985
2022-11-20T11:15:56.401Z,985
2022-11-20T11:21:01.008Z,985
2022-11-20T11:26:05.558Z,985
2022-11-20T11:31:10.093Z,985
2022-11-20T11:36:13.653Z,985
2022-11-20T11:41:18.236Z,985
2022-11-20T11:46:22.734Z,985
2022-11-20T11:51:26.273Z,985
2022-11-20T11:56:30.788Z,985
2022-11-20T12:01:35.355Z,985
2022-11-20T12:06:39.904Z,985
2022-11-20T12:11:43.456Z,985
2022-11-20T12:16:47.993Z,984
2022-11-20T12:21:54.334Z,984
2022-11-20T12:26:56.059Z,984
2022-11-20T12:32:00.575Z,984
2022-11-20T12:37:05.138Z,984
2022-11-20T12:42:08.643Z,984
2022-11-20T12:47:13.223Z,984
2022-11-20T12:52:17.743Z,984
2022-11-20T12:57:21.278Z,984
2022-11-20T13:02:25.852Z,984
2022-11-20T13:07:30.515Z,984
2022-11-20T13:12:34.890Z,984
2022-11-20T13:17:38.453Z,984
2022-11-20T13:22:42.991Z,983
2022-11-20T13:27:47.534Z,983
2022-11-20T13:32:51.058Z,983
2022-11-20T13:37:55.644Z,983
2022-11-20T13:43:00.178Z,983
2022-11-20T13:48:03.707Z,983
2022-11-20T13:53:08.276Z,983
2022-11-20T13:58:12.784Z,983
2022-11-20T14:03:16.349Z,983
2022-11-20T14:08:20.862Z,983
2022-11-20T14:13:25.387Z,983
2022-11-20T14:18:29.920Z,982
2022-11-20T14:23:33.546Z,982
2022-11-20T14:28:38.066Z,982
2022-11-20T14:33:42.607Z,982
2022-11-20T14:38:46.127Z,982
2022-11-20T14:43:50.660Z,982
2022-11-20T14:48:55.232Z,982
2022-11-20T14:53:58.722Z,982
2022-11-20T14:59:03.306Z,982
2022-11-20T15:04:07.879Z,982
2022-11-20T15:09:11.353Z,982
2022-11-20T15:14:15.941Z,982
2022-11-20T15:19:20.656Z,982
2022-11-20T15:24:25.254Z,982
2022-11-20T15:29:28.529Z,982
2022-11-20T15:34:32.073Z,982
2022-11-20T15:39:36.625Z,982
2022-11-20T15:44:41.131Z,982
2022-11-20T15:49:44.701Z,982
2022-11-20T15:54:49.491Z,982
2022-11-20T15:59:53.758Z,982
2022-11-20T16:04:58.296Z,982
2022-11-20T16:10:02.977Z,981
2022-11-20T16:15:13.381Z,981
2022-11-20T16:20:12.052Z,981
2022-11-20T16:25:15.578Z,981
2022-11-20T16:30:20.125Z,981
2022-11-20T16:35:24.606Z,981
2022-11-20T16:40:28.176Z,981
2022-11-20T16:45:34.032Z,981
2022-11-20T16:50:37.260Z,981
2022-11-20T16:55:40.779Z,981
2022-11-20T17:00:51.178Z,981
2022-11-20T17:05:49.873Z,980
2022-11-20T17:10:54.417Z,980
2022-11-20T17:15:57.970Z,980
2022-11-20T17:21:02.521Z,980
2022-11-20T17:26:07.003Z,980
2022-11-20T17:31:10.569Z,980
2022-11-20T17:36:15.127Z,980
2022-11-20T17:41:19.652Z,980
2022-11-20T17:46:23.208Z,980
2022-11-20T17:51:27.733Z,980
2022-11-20T17:56:32.243Z,980
2022-11-20T18:01:35.843Z,979
2022-11-20T18:06:40.330Z,979
2022-11-20T18:11:44.882Z,979
2022-11-20T18:16:49.408Z,979
2022-11-20T18:21:52.986Z,979
2022-11-20T18:26:57.502Z,979
2022-11-20T18:32:02.074Z,979
2022-11-20T18:37:05.589Z,979
2022-11-20T18:42:10.127Z,979
2022-11-20T18:47:15.233Z,979
2022-11-20T18:52:19.316Z,979
2022-11-20T18:57:23.867Z,979
2022-11-20T19:02:28.400Z,979
2022-11-20T19:07:33.099Z,979
2022-11-20T19:12:37.599Z,979
2022-11-20T19:17:42.145Z,979
2022-11-20T19:22:46.622Z,979
2022-11-20T19:27:50.193Z,978
2022-11-20T19:32:54.741Z,979
2022-11-20T19:38:05.198Z,979
2022-11-20T19:43:03.917Z,979
2022-11-20T19:48:08.486Z,978
2022-11-20T19:53:12.024Z,978
2022-11-20T19:58:16.513Z,978
2022-11-20T20:03:21.071Z,978
2022-11-20T20:08:24.666Z,978
2022-11-20T20:13:29.171Z,978
2022-11-20T20:18:33.685Z,978
2022-11-20T20:23:37.266Z,978
2022-11-20T20:28:41.814Z,978
2022-11-20T20:33:46.337Z,979
2022-11-20T20:38:49.872Z,978
2022-11-20T20:43:54.418Z,978
2022-11-20T20:48:58.961Z,978
2022-11-20T20:54:02.474Z,978
2022-11-20T20:59:07.000Z,978
2022-11-20T21:04:11.545Z,978
2022-11-20T21:09:16.072Z,978
2022-11-20T21:14:19.666Z,978
2022-11-20T21:19:24.163Z,978
2022-11-20T21:24:28.734Z,978
2022-11-20T21:29:32.291Z,978
2022-11-20T21:34:36.843Z,978
2022-11-20T21:39:41.321Z,978
2022-11-20T21:44:45.140Z,978
2022-11-20T21:49:49.468Z,979
2022-11-20T21:54:53.964Z,979
2022-11-20T21:59:57.527Z,978
2022-11-20T22:05:02.081Z,979
2022-11-20T22:10:06.556Z,979
2022-11-20T22:15:11.101Z,979
2022-11-20T22:20:14.686Z,979
2022-11-20T22:25:19.177Z,979
2022-11-20T22:30:23.715Z,979
2022-11-20T22:35:27.263Z,979
2022-11-20T22:40:31.825Z,979
2022-11-20T22:45:36.362Z,979
2022-11-20T22:50:39.904Z,979
2022-11-20T22:55:44.439Z,979
2022-11-20T23:00:48.952Z,979
2022-11-20T23:05:52.538Z,979
2022-11-20T23:10:57.065Z,979
2022-11-20T23:16:01.588Z,979
2022-11-20T23:21:06.221Z,979
2022-11-20T23:26:09.678Z,979
2022-11-20T23:31:14.202Z,979
2022-11-20T23:36:18.735Z,979
2022-11-20T23:41:22.296Z,979
2022-11-20T23:46:26.830Z,979
2022-11-20T23:51:31.340Z,979
2022-11-20T23:56:34.880Z,979
